sensor_id;sensor_type;location;lat;lon;timestamp;P1;durP1;ratioP1;P2;durP2;ratioP2
29430;SDS011;16404;49.902;10.074;2023-01-26T00:01:54;49.08;;;22.35;;
29430;SDS011;16404;49.902;10.074;2023-01-26T00:04:39;51.10;;;23.63;;
29430;SDS011;16404;49.902;10.074;2023-01-26T00:07:23;49.42;;;23.17;;
29430;SDS011;16404;49.902;10.074;2023-01-26T00:10:08;48.58;;;22.05;;
29430;SDS011;16404;49.902;10.074;2023-01-26T00:12:53;47.95;;;21.65;;
29430;SDS011;16404;49.902;10.074;2023-01-26T00:15:38;44.85;;;22.02;;
29430;SDS011;16404;49.902;10.074;2023-01-26T00:18:22;48.40;;;21.73;;
29430;SDS011;16404;49.902;10.074;2023-01-26T00:21:08;46.72;;;22.90;;
29430;SDS011;16404;49.902;10.074;2023-01-26T00:23:56;42.58;;;20.85;;
29430;SDS011;16404;49.902;10.074;2023-01-26T00:26:42;47.45;;;22.35;;
29430;SDS011;16404;49.902;10.074;2023-01-26T00:29:26;46.22;;;21.48;;
29430;SDS011;16404;49.902;10.074;2023-01-26T00:32:11;45.80;;;21.95;;
29430;SDS011;16404;49.902;10.074;2023-01-26T00:34:55;49.72;;;22.25;;
29430;SDS011;16404;49.902;10.074;2023-01-26T00:37:40;48.17;;;22.98;;
29430;SDS011;16404;49.902;10.074;2023-01-26T00:40:25;56.83;;;26.08;;
29430;SDS011;16404;49.902;10.074;2023-01-26T00:43:10;58.90;;;26.13;;
29430;SDS011;16404;49.902;10.074;2023-01-26T00:45:55;55.30;;;24.95;;
29430;SDS011;16404;49.902;10.074;2023-01-26T00:48:39;56.08;;;23.88;;
29430;SDS011;16404;49.902;10.074;2023-01-26T00:51:24;52.75;;;24.05;;
29430;SDS011;16404;49.902;10.074;2023-01-26T00:54:08;52.67;;;23.10;;
29430;SDS011;16404;49.902;10.074;2023-01-26T00:56:53;52.83;;;24.05;;
29430;SDS011;16404;49.902;10.074;2023-01-26T00:59:39;57.03;;;25.38;;
29430;SDS011;16404;49.902;10.074;2023-01-26T01:02:23;55.88;;;24.83;;
29430;SDS011;16404;49.902;10.074;2023-01-26T01:05:08;56.92;;;25.33;;
29430;SDS011;16404;49.902;10.074;2023-01-26T01:07:52;58.88;;;25.45;;
29430;SDS011;16404;49.902;10.074;2023-01-26T01:10:37;56.35;;;23.85;;
29430;SDS011;16404;49.902;10.074;2023-01-26T01:13:22;56.78;;;25.67;;
29430;SDS011;16404;49.902;10.074;2023-01-26T01:16:07;57.90;;;25.50;;
29430;SDS011;16404;49.902;10.074;2023-01-26T01:18:53;58.35;;;24.02;;
29430;SDS011;16404;49.902;10.074;2023-01-26T01:21:38;53.90;;;25.02;;
29430;SDS011;16404;49.902;10.074;2023-01-26T01:24:23;62.85;;;25.70;;
29430;SDS011;16404;49.902;10.074;2023-01-26T01:27:08;51.75;;;24.48;;
29430;SDS011;16404;49.902;10.074;2023-01-26T01:29:52;54.15;;;24.25;;
29430;SDS011;16404;49.902;10.074;2023-01-26T01:32:37;57.90;;;24.52;;
29430;SDS011;16404;49.902;10.074;2023-01-26T01:35:22;55.72;;;25.13;;
29430;SDS011;16404;49.902;10.074;2023-01-26T01:38:07;61.97;;;24.65;;
29430;SDS011;16404;49.902;10.074;2023-01-26T01:40:53;52.03;;;25.35;;
29430;SDS011;16404;49.902;10.074;2023-01-26T01:43:39;56.28;;;24.83;;
29430;SDS011;16404;49.902;10.074;2023-01-26T01:46:33;60.47;;;26.05;;
29430;SDS011;16404;49.902;10.074;2023-01-26T01:49:21;58.50;;;25.60;;
29430;SDS011;16404;49.902;10.074;2023-01-26T01:52:11;64.35;;;27.25;;
29430;SDS011;16404;49.902;10.074;2023-01-26T01:55:05;56.20;;;26.00;;
29430;SDS011;16404;49.902;10.074;2023-01-26T01:57:54;62.88;;;27.48;;
29430;SDS011;16404;49.902;10.074;2023-01-26T02:00:42;58.15;;;25.45;;
29430;SDS011;16404;49.902;10.074;2023-01-26T02:03:26;55.33;;;24.50;;
29430;SDS011;16404;49.902;10.074;2023-01-26T02:06:13;52.33;;;23.20;;
29430;SDS011;16404;49.902;10.074;2023-01-26T02:09:02;54.45;;;24.20;;
29430;SDS011;16404;49.902;10.074;2023-01-26T02:11:50;58.80;;;25.45;;
29430;SDS011;16404;49.902;10.074;2023-01-26T02:14:34;53.25;;;21.92;;
29430;SDS011;16404;49.902;10.074;2023-01-26T02:17:19;49.00;;;22.35;;
29430;SDS011;16404;49.902;10.074;2023-01-26T02:26:22;52.17;;;23.63;;
29430;SDS011;16404;49.902;10.074;2023-01-26T02:29:09;56.60;;;23.20;;
29430;SDS011;16404;49.902;10.074;2023-01-26T02:31:58;54.78;;;23.60;;
29430;SDS011;16404;49.902;10.074;2023-01-26T02:34:43;55.10;;;24.00;;
29430;SDS011;16404;49.902;10.074;2023-01-26T02:37:28;52.15;;;23.33;;
29430;SDS011;16404;49.902;10.074;2023-01-26T02:40:15;53.03;;;24.13;;
29430;SDS011;16404;49.902;10.074;2023-01-26T02:43:22;50.42;;;22.92;;
29430;SDS011;16404;49.902;10.074;2023-01-26T02:46:08;54.55;;;24.23;;
29430;SDS011;16404;49.902;10.074;2023-01-26T02:48:56;55.42;;;24.58;;
29430;SDS011;16404;49.902;10.074;2023-01-26T02:51:59;55.10;;;23.35;;
29430;SDS011;16404;49.902;10.074;2023-01-26T02:54:44;51.63;;;24.05;;
29430;SDS011;16404;49.902;10.074;2023-01-26T02:58:02;55.72;;;23.05;;
29430;SDS011;16404;49.902;10.074;2023-01-26T03:00:49;54.60;;;23.92;;
29430;SDS011;16404;49.902;10.074;2023-01-26T03:03:34;52.92;;;23.40;;
29430;SDS011;16404;49.902;10.074;2023-01-26T03:06:24;54.55;;;24.95;;
29430;SDS011;16404;49.902;10.074;2023-01-26T03:09:09;57.53;;;25.17;;
29430;SDS011;16404;49.902;10.074;2023-01-26T03:11:53;44.72;;;20.92;;
29430;SDS011;16404;49.902;10.074;2023-01-26T03:14:38;47.95;;;21.75;;
29430;SDS011;16404;49.902;10.074;2023-01-26T03:17:23;49.05;;;21.67;;
29430;SDS011;16404;49.902;10.074;2023-01-26T03:20:08;44.85;;;20.45;;
29430;SDS011;16404;49.902;10.074;2023-01-26T03:23:11;54.15;;;22.67;;
29430;SDS011;16404;49.902;10.074;2023-01-26T03:26:14;44.88;;;20.55;;
29430;SDS011;16404;49.902;10.074;2023-01-26T03:29:17;49.63;;;22.17;;
29430;SDS011;16404;49.902;10.074;2023-01-26T03:32:02;46.55;;;22.23;;
29430;SDS011;16404;49.902;10.074;2023-01-26T03:34:47;49.90;;;21.23;;
29430;SDS011;16404;49.902;10.074;2023-01-26T03:37:32;45.15;;;20.50;;
29430;SDS011;16404;49.902;10.074;2023-01-26T03:40:26;45.17;;;20.88;;
29430;SDS011;16404;49.902;10.074;2023-01-26T03:43:29;44.47;;;19.60;;
29430;SDS011;16404;49.902;10.074;2023-01-26T03:46:33;45.63;;;19.52;;
29430;SDS011;16404;49.902;10.074;2023-01-26T03:49:36;45.35;;;19.40;;
29430;SDS011;16404;49.902;10.074;2023-01-26T03:52:40;44.22;;;18.70;;
29430;SDS011;16404;49.902;10.074;2023-01-26T03:55:43;36.30;;;18.23;;
29430;SDS011;16404;49.902;10.074;2023-01-26T03:58:47;44.75;;;20.05;;
29430;SDS011;16404;49.902;10.074;2023-01-26T04:01:35;47.88;;;22.48;;
29430;SDS011;16404;49.902;10.074;2023-01-26T04:04:25;46.75;;;20.52;;
29430;SDS011;16404;49.902;10.074;2023-01-26T04:07:29;59.65;;;23.25;;
29430;SDS011;16404;49.902;10.074;2023-01-26T04:10:32;63.63;;;24.67;;
29430;SDS011;16404;49.902;10.074;2023-01-26T04:13:20;54.53;;;22.05;;
29430;SDS011;16404;49.902;10.074;2023-01-26T04:16:28;48.40;;;21.42;;
29430;SDS011;16404;49.902;10.074;2023-01-26T04:19:31;39.95;;;18.73;;
29430;SDS011;16404;49.902;10.074;2023-01-26T04:22:38;41.58;;;19.23;;
29430;SDS011;16404;49.902;10.074;2023-01-26T04:25:26;43.08;;;18.83;;
29430;SDS011;16404;49.902;10.074;2023-01-26T04:28:13;45.33;;;19.13;;
29430;SDS011;16404;49.902;10.074;2023-01-26T04:30:59;45.30;;;20.52;;
29430;SDS011;16404;49.902;10.074;2023-01-26T04:33:43;46.08;;;21.23;;
29430;SDS011;16404;49.902;10.074;2023-01-26T04:36:28;48.50;;;20.48;;
29430;SDS011;16404;49.902;10.074;2023-01-26T04:42:01;41.58;;;17.95;;
29430;SDS011;16404;49.902;10.074;2023-01-26T04:44:46;41.80;;;18.23;;
29430;SDS011;16404;49.902;10.074;2023-01-26T04:50:15;50.97;;;20.13;;
29430;SDS011;16404;49.902;10.074;2023-01-26T04:53:02;44.95;;;19.27;;
29430;SDS011;16404;49.902;10.074;2023-01-26T04:55:49;46.15;;;18.38;;
29430;SDS011;16404;49.902;10.074;2023-01-26T04:58:33;50.00;;;19.77;;
29430;SDS011;16404;49.902;10.074;2023-01-26T05:01:18;46.53;;;20.33;;
29430;SDS011;16404;49.902;10.074;2023-01-26T05:04:03;43.08;;;19.48;;
29430;SDS011;16404;49.902;10.074;2023-01-26T05:06:50;39.85;;;17.67;;
29430;SDS011;16404;49.902;10.074;2023-01-26T05:09:34;43.17;;;17.60;;
29430;SDS011;16404;49.902;10.074;2023-01-26T05:12:45;42.58;;;17.30;;
29430;SDS011;16404;49.902;10.074;2023-01-26T05:15:54;47.20;;;17.35;;
29430;SDS011;16404;49.902;10.074;2023-01-26T05:18:55;45.58;;;19.17;;
29430;SDS011;16404;49.902;10.074;2023-01-26T05:22:12;50.65;;;19.75;;
29430;SDS011;16404;49.902;10.074;2023-01-26T05:25:06;41.90;;;18.25;;
29430;SDS011;16404;49.902;10.074;2023-01-26T05:27:58;47.15;;;19.13;;
29430;SDS011;16404;49.902;10.074;2023-01-26T05:33:27;48.20;;;17.63;;
29430;SDS011;16404;49.902;10.074;2023-01-26T05:38:58;40.45;;;16.65;;
29430;SDS011;16404;49.902;10.074;2023-01-26T05:41:44;37.55;;;16.20;;
29430;SDS011;16404;49.902;10.074;2023-01-26T05:45:00;39.40;;;15.90;;
29430;SDS011;16404;49.902;10.074;2023-01-26T05:47:46;46.13;;;18.63;;
29430;SDS011;16404;49.902;10.074;2023-01-26T05:50:33;51.65;;;18.60;;
29430;SDS011;16404;49.902;10.074;2023-01-26T05:53:38;48.90;;;18.20;;
29430;SDS011;16404;49.902;10.074;2023-01-26T05:56:22;48.53;;;18.20;;
29430;SDS011;16404;49.902;10.074;2023-01-26T05:59:12;42.40;;;18.45;;
29430;SDS011;16404;49.902;10.074;2023-01-26T06:01:59;46.85;;;18.85;;
29430;SDS011;16404;49.902;10.074;2023-01-26T06:04:43;44.22;;;18.25;;
29430;SDS011;16404;49.902;10.074;2023-01-26T06:07:28;46.00;;;17.85;;
29430;SDS011;16404;49.902;10.074;2023-01-26T06:10:25;76.13;;;27.05;;
29430;SDS011;16404;49.902;10.074;2023-01-26T06:13:23;53.83;;;20.10;;
29430;SDS011;16404;49.902;10.074;2023-01-26T06:16:11;46.53;;;17.20;;
29430;SDS011;16404;49.902;10.074;2023-01-26T06:18:55;45.75;;;17.65;;
29430;SDS011;16404;49.902;10.074;2023-01-26T06:21:40;51.47;;;17.88;;
29430;SDS011;16404;49.902;10.074;2023-01-26T06:24:25;52.38;;;18.20;;
29430;SDS011;16404;49.902;10.074;2023-01-26T06:27:11;59.45;;;22.88;;
29430;SDS011;16404;49.902;10.074;2023-01-26T06:30:01;59.53;;;24.15;;
29430;SDS011;16404;49.902;10.074;2023-01-26T06:32:48;55.75;;;21.33;;
29430;SDS011;16404;49.902;10.074;2023-01-26T06:35:34;70.15;;;27.92;;
29430;SDS011;16404;49.902;10.074;2023-01-26T06:38:21;64.53;;;27.88;;
29430;SDS011;16404;49.902;10.074;2023-01-26T06:41:06;51.97;;;18.40;;
29430;SDS011;16404;49.902;10.074;2023-01-26T06:43:52;53.65;;;21.25;;
29430;SDS011;16404;49.902;10.074;2023-01-26T06:46:37;58.65;;;23.08;;
29430;SDS011;16404;49.902;10.074;2023-01-26T06:49:22;62.38;;;23.80;;
29430;SDS011;16404;49.902;10.074;2023-01-26T06:52:21;54.78;;;19.52;;
29430;SDS011;16404;49.902;10.074;2023-01-26T06:55:15;53.83;;;18.02;;
29430;SDS011;16404;49.902;10.074;2023-01-26T06:58:09;49.17;;;18.52;;
29430;SDS011;16404;49.902;10.074;2023-01-26T07:01:22;46.47;;;17.73;;
29430;SDS011;16404;49.902;10.074;2023-01-26T07:04:09;45.00;;;16.30;;
29430;SDS011;16404;49.902;10.074;2023-01-26T07:06:53;45.97;;;16.40;;
29430;SDS011;16404;49.902;10.074;2023-01-26T07:09:38;48.88;;;17.23;;
29430;SDS011;16404;49.902;10.074;2023-01-26T07:12:23;45.15;;;14.73;;
29430;SDS011;16404;49.902;10.074;2023-01-26T07:15:08;40.83;;;14.13;;
29430;SDS011;16404;49.902;10.074;2023-01-26T07:17:55;41.17;;;14.85;;
29430;SDS011;16404;49.902;10.074;2023-01-26T07:20:40;42.53;;;15.55;;
29430;SDS011;16404;49.902;10.074;2023-01-26T07:23:25;44.08;;;15.60;;
29430;SDS011;16404;49.902;10.074;2023-01-26T07:26:09;44.53;;;14.77;;
29430;SDS011;16404;49.902;10.074;2023-01-26T07:28:54;40.00;;;14.10;;
29430;SDS011;16404;49.902;10.074;2023-01-26T07:31:39;43.95;;;15.80;;
29430;SDS011;16404;49.902;10.074;2023-01-26T07:34:24;39.13;;;15.07;;
29430;SDS011;16404;49.902;10.074;2023-01-26T07:37:08;48.65;;;19.75;;
29430;SDS011;16404;49.902;10.074;2023-01-26T07:39:53;39.80;;;14.63;;
29430;SDS011;16404;49.902;10.074;2023-01-26T07:42:38;36.55;;;13.60;;
29430;SDS011;16404;49.902;10.074;2023-01-26T07:48:38;32.42;;;12.68;;
29430;SDS011;16404;49.902;10.074;2023-01-26T07:51:23;35.17;;;14.00;;
29430;SDS011;16404;49.902;10.074;2023-01-26T07:54:08;40.13;;;14.38;;
29430;SDS011;16404;49.902;10.074;2023-01-26T07:56:54;34.42;;;13.85;;
29430;SDS011;16404;49.902;10.074;2023-01-26T07:59:38;35.78;;;15.32;;
29430;SDS011;16404;49.902;10.074;2023-01-26T08:02:23;36.92;;;13.45;;
29430;SDS011;16404;49.902;10.074;2023-01-26T08:05:07;35.20;;;14.05;;
29430;SDS011;16404;49.902;10.074;2023-01-26T08:07:56;41.42;;;14.30;;
29430;SDS011;16404;49.902;10.074;2023-01-26T08:10:43;42.58;;;14.27;;
29430;SDS011;16404;49.902;10.074;2023-01-26T08:13:28;33.53;;;13.40;;
29430;SDS011;16404;49.902;10.074;2023-01-26T08:16:13;40.28;;;13.57;;
29430;SDS011;16404;49.902;10.074;2023-01-26T08:18:58;33.42;;;13.05;;
29430;SDS011;16404;49.902;10.074;2023-01-26T08:21:43;62.70;;;26.23;;
29430;SDS011;16404;49.902;10.074;2023-01-26T08:24:27;63.95;;;29.77;;
29430;SDS011;16404;49.902;10.074;2023-01-26T08:27:12;31.92;;;12.65;;
29430;SDS011;16404;49.902;10.074;2023-01-26T08:29:58;29.08;;;11.70;;
29430;SDS011;16404;49.902;10.074;2023-01-26T08:32:43;28.80;;;11.57;;
29430;SDS011;16404;49.902;10.074;2023-01-26T08:35:27;28.52;;;11.32;;
29430;SDS011;16404;49.902;10.074;2023-01-26T08:38:14;33.70;;;12.63;;
29430;SDS011;16404;49.902;10.074;2023-01-26T08:40:59;22.88;;;9.60;;
29430;SDS011;16404;49.902;10.074;2023-01-26T08:43:43;18.65;;;8.48;;
29430;SDS011;16404;49.902;10.074;2023-01-26T08:46:28;20.05;;;8.88;;
29430;SDS011;16404;49.902;10.074;2023-01-26T08:49:13;16.77;;;7.57;;
29430;SDS011;16404;49.902;10.074;2023-01-26T08:51:57;15.18;;;6.68;;
29430;SDS011;16404;49.902;10.074;2023-01-26T08:54:42;18.02;;;8.38;;
29430;SDS011;16404;49.902;10.074;2023-01-26T08:57:27;18.38;;;7.82;;
29430;SDS011;16404;49.902;10.074;2023-01-26T09:00:11;16.83;;;7.28;;
29430;SDS011;16404;49.902;10.074;2023-01-26T09:02:57;14.13;;;7.38;;
29430;SDS011;16404;49.902;10.074;2023-01-26T09:05:46;19.10;;;8.15;;
29430;SDS011;16404;49.902;10.074;2023-01-26T09:08:31;22.38;;;9.23;;
29430;SDS011;16404;49.902;10.074;2023-01-26T09:11:15;24.13;;;8.85;;
29430;SDS011;16404;49.902;10.074;2023-01-26T09:14:00;20.88;;;8.50;;
29430;SDS011;16404;49.902;10.074;2023-01-26T09:16:45;19.33;;;8.77;;
29430;SDS011;16404;49.902;10.074;2023-01-26T09:19:29;20.45;;;8.95;;
29430;SDS011;16404;49.902;10.074;2023-01-26T09:22:14;20.42;;;8.95;;
29430;SDS011;16404;49.902;10.074;2023-01-26T09:24:59;20.40;;;9.23;;
29430;SDS011;16404;49.902;10.074;2023-01-26T09:27:43;20.08;;;9.05;;
29430;SDS011;16404;49.902;10.074;2023-01-26T09:30:28;20.02;;;8.35;;
29430;SDS011;16404;49.902;10.074;2023-01-26T09:33:13;15.18;;;7.80;;
29430;SDS011;16404;49.902;10.074;2023-01-26T09:36:04;12.88;;;7.25;;
29430;SDS011;16404;49.902;10.074;2023-01-26T09:38:50;11.90;;;6.53;;
29430;SDS011;16404;49.902;10.074;2023-01-26T09:41:48;15.90;;;7.20;;
29430;SDS011;16404;49.902;10.074;2023-01-26T09:44:43;15.57;;;6.55;;
29430;SDS011;16404;49.902;10.074;2023-01-26T09:47:38;13.82;;;6.97;;
29430;SDS011;16404;49.902;10.074;2023-01-26T09:50:29;13.65;;;6.95;;
29430;SDS011;16404;49.902;10.074;2023-01-26T09:53:26;17.58;;;8.43;;
29430;SDS011;16404;49.902;10.074;2023-01-26T09:56:18;15.98;;;8.18;;
29430;SDS011;16404;49.902;10.074;2023-01-26T09:59:10;14.52;;;7.35;;
29430;SDS011;16404;49.902;10.074;2023-01-26T10:02:01;12.23;;;7.00;;
29430;SDS011;16404;49.902;10.074;2023-01-26T10:04:48;11.52;;;6.50;;
29430;SDS011;16404;49.902;10.074;2023-01-26T10:07:37;15.35;;;7.60;;
29430;SDS011;16404;49.902;10.074;2023-01-26T10:10:26;13.82;;;7.32;;
29430;SDS011;16404;49.902;10.074;2023-01-26T10:13:14;14.98;;;6.65;;
29430;SDS011;16404;49.902;10.074;2023-01-26T10:16:05;12.25;;;6.38;;
29430;SDS011;16404;49.902;10.074;2023-01-26T10:18:54;11.43;;;6.22;;
29430;SDS011;16404;49.902;10.074;2023-01-26T10:21:44;10.98;;;5.43;;
29430;SDS011;16404;49.902;10.074;2023-01-26T10:24:33;10.02;;;5.65;;
29430;SDS011;16404;49.902;10.074;2023-01-26T10:27:18;11.52;;;5.72;;
29430;SDS011;16404;49.902;10.074;2023-01-26T10:30:02;10.95;;;5.43;;
29430;SDS011;16404;49.902;10.074;2023-01-26T10:35:34;10.32;;;5.53;;
29430;SDS011;16404;49.902;10.074;2023-01-26T10:41:21;10.30;;;5.65;;
29430;SDS011;16404;49.902;10.074;2023-01-26T10:44:24;9.40;;;5.07;;
29430;SDS011;16404;49.902;10.074;2023-01-26T10:47:15;8.45;;;4.97;;
29430;SDS011;16404;49.902;10.074;2023-01-26T10:53:10;9.75;;;5.07;;
29430;SDS011;16404;49.902;10.074;2023-01-26T10:56:12;6.85;;;4.28;;
29430;SDS011;16404;49.902;10.074;2023-01-26T10:58:59;10.07;;;5.03;;
29430;SDS011;16404;49.902;10.074;2023-01-26T11:01:53;7.63;;;4.90;;
29430;SDS011;16404;49.902;10.074;2023-01-26T11:05:03;10.05;;;5.32;;
29430;SDS011;16404;49.902;10.074;2023-01-26T11:07:51;8.48;;;5.18;;
29430;SDS011;16404;49.902;10.074;2023-01-26T11:10:50;9.63;;;5.15;;
29430;SDS011;16404;49.902;10.074;2023-01-26T11:13:35;10.23;;;5.70;;
29430;SDS011;16404;49.902;10.074;2023-01-26T11:16:20;12.10;;;6.35;;
29430;SDS011;16404;49.902;10.074;2023-01-26T11:19:51;9.98;;;6.35;;
29430;SDS011;16404;49.902;10.074;2023-01-26T11:35:27;10.45;;;5.65;;
29430;SDS011;16404;49.902;10.074;2023-01-26T11:44:39;11.90;;;6.45;;
29430;SDS011;16404;49.902;10.074;2023-01-26T11:48:11;15.20;;;7.22;;
29430;SDS011;16404;49.902;10.074;2023-01-26T11:57:49;10.63;;;5.53;;
29430;SDS011;16404;49.902;10.074;2023-01-26T12:00:55;30.02;;;12.73;;
29430;SDS011;16404;49.902;10.074;2023-01-26T12:03:49;14.23;;;7.05;;
29430;SDS011;16404;49.902;10.074;2023-01-26T12:06:36;15.45;;;7.03;;
29430;SDS011;16404;49.902;10.074;2023-01-26T12:09:29;14.70;;;7.40;;
29430;SDS011;16404;49.902;10.074;2023-01-26T12:15:18;22.30;;;10.10;;
29430;SDS011;16404;49.902;10.074;2023-01-26T12:18:12;42.42;;;14.60;;
29430;SDS011;16404;49.902;10.074;2023-01-26T12:21:06;16.00;;;7.90;;
29430;SDS011;16404;49.902;10.074;2023-01-26T12:23:57;10.20;;;6.10;;
29430;SDS011;16404;49.902;10.074;2023-01-26T12:26:49;9.55;;;5.30;;
29430;SDS011;16404;49.902;10.074;2023-01-26T12:32:55;8.30;;;4.93;;
29430;SDS011;16404;49.902;10.074;2023-01-26T12:41:57;8.57;;;5.28;;
29430;SDS011;16404;49.902;10.074;2023-01-26T12:44:58;7.72;;;4.82;;
29430;SDS011;16404;49.902;10.074;2023-01-26T12:47:49;8.43;;;5.43;;
29430;SDS011;16404;49.902;10.074;2023-01-26T12:50:39;10.77;;;6.05;;
29430;SDS011;16404;49.902;10.074;2023-01-26T12:53:33;19.45;;;8.20;;
29430;SDS011;16404;49.902;10.074;2023-01-26T12:56:34;12.15;;;5.97;;
29430;SDS011;16404;49.902;10.074;2023-01-26T12:59:29;10.95;;;6.45;;
29430;SDS011;16404;49.902;10.074;2023-01-26T13:02:22;12.18;;;7.30;;
29430;SDS011;16404;49.902;10.074;2023-01-26T13:05:28;13.15;;;6.90;;
29430;SDS011;16404;49.902;10.074;2023-01-26T13:11:39;24.48;;;8.77;;
29430;SDS011;16404;49.902;10.074;2023-01-26T13:14:32;38.47;;;10.60;;
29430;SDS011;16404;49.902;10.074;2023-01-26T13:26:13;21.10;;;9.15;;
29430;SDS011;16404;49.902;10.074;2023-01-26T13:29:33;16.20;;;8.00;;
29430;SDS011;16404;49.902;10.074;2023-01-26T13:35:06;14.98;;;7.55;;
29430;SDS011;16404;49.902;10.074;2023-01-26T13:37:56;14.32;;;7.28;;
29430;SDS011;16404;49.902;10.074;2023-01-26T13:40:49;13.80;;;7.40;;
29430;SDS011;16404;49.902;10.074;2023-01-26T13:43:35;16.30;;;8.27;;
29430;SDS011;16404;49.902;10.074;2023-01-26T13:46:33;14.73;;;8.18;;
29430;SDS011;16404;49.902;10.074;2023-01-26T13:49:41;14.25;;;8.48;;
29430;SDS011;16404;49.902;10.074;2023-01-26T13:52:26;15.45;;;8.82;;
29430;SDS011;16404;49.902;10.074;2023-01-26T13:58:10;19.00;;;9.70;;
29430;SDS011;16404;49.902;10.074;2023-01-26T14:00:56;16.58;;;8.65;;
29430;SDS011;16404;49.902;10.074;2023-01-26T14:04:41;19.52;;;9.02;;
29430;SDS011;16404;49.902;10.074;2023-01-26T14:07:37;16.80;;;10.00;;
29430;SDS011;16404;49.902;10.074;2023-01-26T14:10:24;16.83;;;8.90;;
29430;SDS011;16404;49.902;10.074;2023-01-26T14:13:55;17.55;;;9.77;;
29430;SDS011;16404;49.902;10.074;2023-01-26T14:16:44;16.80;;;9.27;;
29430;SDS011;16404;49.902;10.074;2023-01-26T14:19:58;16.15;;;8.45;;
29430;SDS011;16404;49.902;10.074;2023-01-26T14:28:58;16.17;;;8.98;;
29430;SDS011;16404;49.902;10.074;2023-01-26T14:31:43;15.45;;;8.88;;
29430;SDS011;16404;49.902;10.074;2023-01-26T14:34:30;16.80;;;8.95;;
29430;SDS011;16404;49.902;10.074;2023-01-26T14:37:16;15.45;;;8.43;;
29430;SDS011;16404;49.902;10.074;2023-01-26T14:40:17;16.98;;;8.45;;
29430;SDS011;16404;49.902;10.074;2023-01-26T14:43:03;16.35;;;8.68;;
29430;SDS011;16404;49.902;10.074;2023-01-26T14:45:53;13.32;;;8.02;;
29430;SDS011;16404;49.902;10.074;2023-01-26T14:48:46;14.52;;;8.68;;
29430;SDS011;16404;49.902;10.074;2023-01-26T14:51:39;15.43;;;8.93;;
29430;SDS011;16404;49.902;10.074;2023-01-26T14:54:28;17.15;;;9.23;;
29430;SDS011;16404;49.902;10.074;2023-01-26T14:57:17;18.88;;;9.18;;
29430;SDS011;16404;49.902;10.074;2023-01-26T15:00:04;16.25;;;8.95;;
29430;SDS011;16404;49.902;10.074;2023-01-26T15:02:53;15.25;;;9.25;;
29430;SDS011;16404;49.902;10.074;2023-01-26T15:05:39;15.65;;;8.85;;
29430;SDS011;16404;49.902;10.074;2023-01-26T15:08:27;14.35;;;8.20;;
29430;SDS011;16404;49.902;10.074;2023-01-26T15:11:12;15.27;;;8.93;;
29430;SDS011;16404;49.902;10.074;2023-01-26T15:14:32;15.32;;;9.05;;
29430;SDS011;16404;49.902;10.074;2023-01-26T15:17:25;15.57;;;9.50;;
29430;SDS011;16404;49.902;10.074;2023-01-26T15:29:30;17.23;;;9.35;;
29430;SDS011;16404;49.902;10.074;2023-01-26T15:32:28;15.88;;;9.38;;
29430;SDS011;16404;49.902;10.074;2023-01-26T15:35:26;16.65;;;9.40;;
29430;SDS011;16404;49.902;10.074;2023-01-26T15:38:15;18.17;;;9.63;;
29430;SDS011;16404;49.902;10.074;2023-01-26T15:41:00;16.70;;;8.80;;
29430;SDS011;16404;49.902;10.074;2023-01-26T15:43:44;16.35;;;8.98;;
29430;SDS011;16404;49.902;10.074;2023-01-26T15:46:29;18.02;;;9.85;;
29430;SDS011;16404;49.902;10.074;2023-01-26T15:49:14;18.40;;;10.02;;
29430;SDS011;16404;49.902;10.074;2023-01-26T15:52:05;18.75;;;9.15;;
29430;SDS011;16404;49.902;10.074;2023-01-26T15:54:56;16.30;;;9.00;;
29430;SDS011;16404;49.902;10.074;2023-01-26T15:57:41;16.40;;;9.45;;
29430;SDS011;16404;49.902;10.074;2023-01-26T16:00:27;18.13;;;9.65;;
29430;SDS011;16404;49.902;10.074;2023-01-26T16:03:12;15.90;;;8.82;;
29430;SDS011;16404;49.902;10.074;2023-01-26T16:05:59;16.10;;;8.77;;
29430;SDS011;16404;49.902;10.074;2023-01-26T16:08:44;17.42;;;9.52;;
29430;SDS011;16404;49.902;10.074;2023-01-26T16:11:35;18.88;;;9.68;;
29430;SDS011;16404;49.902;10.074;2023-01-26T16:14:23;15.98;;;8.60;;
29430;SDS011;16404;49.902;10.074;2023-01-26T16:17:15;20.50;;;9.48;;
29430;SDS011;16404;49.902;10.074;2023-01-26T16:20:01;17.80;;;9.27;;
29430;SDS011;16404;49.902;10.074;2023-01-26T16:22:49;16.33;;;9.65;;
29430;SDS011;16404;49.902;10.074;2023-01-26T16:25:34;18.33;;;9.75;;
29430;SDS011;16404;49.902;10.074;2023-01-26T16:28:20;17.95;;;10.15;;
29430;SDS011;16404;49.902;10.074;2023-01-26T16:31:10;19.63;;;10.55;;
29430;SDS011;16404;49.902;10.074;2023-01-26T16:33:57;17.58;;;9.43;;
29430;SDS011;16404;49.902;10.074;2023-01-26T16:36:43;19.60;;;10.90;;
29430;SDS011;16404;49.902;10.074;2023-01-26T16:39:29;18.80;;;10.15;;
29430;SDS011;16404;49.902;10.074;2023-01-26T16:42:15;16.73;;;9.65;;
29430;SDS011;16404;49.902;10.074;2023-01-26T16:45:02;21.02;;;10.38;;
29430;SDS011;16404;49.902;10.074;2023-01-26T16:47:56;22.40;;;10.55;;
29430;SDS011;16404;49.902;10.074;2023-01-26T16:50:42;20.52;;;10.93;;
29430;SDS011;16404;49.902;10.074;2023-01-26T16:53:29;16.95;;;9.85;;
29430;SDS011;16404;49.902;10.074;2023-01-26T16:56:18;30.00;;;13.23;;
29430;SDS011;16404;49.902;10.074;2023-01-26T16:59:04;23.05;;;11.93;;
29430;SDS011;16404;49.902;10.074;2023-01-26T17:01:48;19.83;;;10.38;;
29430;SDS011;16404;49.902;10.074;2023-01-26T17:04:33;17.05;;;8.82;;
29430;SDS011;16404;49.902;10.074;2023-01-26T17:07:17;17.17;;;10.18;;
29430;SDS011;16404;49.902;10.074;2023-01-26T17:10:02;15.20;;;8.50;;
29430;SDS011;16404;49.902;10.074;2023-01-26T17:12:47;15.68;;;8.68;;
29430;SDS011;16404;49.902;10.074;2023-01-26T17:15:31;16.08;;;7.95;;
29430;SDS011;16404;49.902;10.074;2023-01-26T17:21:01;23.20;;;11.80;;
29430;SDS011;16404;49.902;10.074;2023-01-26T17:23:47;45.83;;;20.77;;
29430;SDS011;16404;49.902;10.074;2023-01-26T17:26:32;29.90;;;17.30;;
29430;SDS011;16404;49.902;10.074;2023-01-26T17:29:17;18.33;;;9.73;;
29430;SDS011;16404;49.902;10.074;2023-01-26T17:32:01;18.75;;;11.20;;
29430;SDS011;16404;49.902;10.074;2023-01-26T17:37:44;16.13;;;9.18;;
29430;SDS011;16404;49.902;10.074;2023-01-26T17:40:28;16.80;;;9.48;;
29430;SDS011;16404;49.902;10.074;2023-01-26T17:43:13;17.75;;;8.50;;
29430;SDS011;16404;49.902;10.074;2023-01-26T17:46:04;18.60;;;8.48;;
29430;SDS011;16404;49.902;10.074;2023-01-26T17:48:56;16.92;;;8.73;;
29430;SDS011;16404;49.902;10.074;2023-01-26T17:51:41;17.02;;;8.38;;
29430;SDS011;16404;49.902;10.074;2023-01-26T17:54:29;17.15;;;9.13;;
29430;SDS011;16404;49.902;10.074;2023-01-26T18:06:21;16.40;;;8.90;;
29430;SDS011;16404;49.902;10.074;2023-01-26T18:09:46;18.27;;;10.38;;
29430;SDS011;16404;49.902;10.074;2023-01-26T18:20:46;18.73;;;10.90;;
29430;SDS011;16404;49.902;10.074;2023-01-26T18:28:13;21.83;;;11.02;;
29430;SDS011;16404;49.902;10.074;2023-01-26T18:34:36;41.00;;;22.40;;
29430;SDS011;16404;49.902;10.074;2023-01-26T18:37:24;28.48;;;13.88;;